createdAt,value
2017-03-20T00:00:27.009Z,999.34
2017-03-20T00:01:07.889Z,999.32
2017-03-20T00:01:48.776Z,999.43
2017-03-20T00:02:29.651Z,999.43
2017-03-20T00:03:10.536Z,999.54
2017-03-20T00:03:51.430Z,999.41
2017-03-20T00:04:32.311Z,999.31
2017-03-20T00:05:13.189Z,999.4
2017-03-20T00:05:54.066Z,999.38
2017-03-20T00:06:34.951Z,999.47
2017-03-20T00:07:15.834Z,999.34
2017-03-20T00:07:56.719Z,999.38
2017-03-20T00:08:37.603Z,999.34
2017-03-20T00:09:18.492Z,999.46
2017-03-20T00:09:59.375Z,999.38
2017-03-20T00:10:40.251Z,999.42
2017-03-20T00:11:21.134Z,999.38
2017-03-20T00:12:02.019Z,999.51
2017-03-20T00:12:42.897Z,999.52
2017-03-20T00:13:23.782Z,999.52
2017-03-20T00:14:04.668Z,999.51
2017-03-20T00:14:45.556Z,999.47
2017-03-20T00:15:26.442Z,999.6
2017-03-20T00:16:07.314Z,999.54
2017-03-20T00:16:48.199Z,999.6
2017-03-20T00:17:29.088Z,999.61
2017-03-20T00:18:09.985Z,999.64
2017-03-20T00:18:50.856Z,999.59
2017-03-20T00:19:31.735Z,999.63
2017-03-20T00:20:12.627Z,999.54
2017-03-20T00:20:53.509Z,999.65
2017-03-20T00:21:34.385Z,999.59
2017-03-20T00:22:15.267Z,999.58
2017-03-20T00:22:56.156Z,999.7
2017-03-20T00:23:37.042Z,999.59
2017-03-20T00:24:17.920Z,999.74
2017-03-20T00:24:58.803Z,999.56
2017-03-20T00:25:39.689Z,999.65
2017-03-20T00:26:20.575Z,999.66
2017-03-20T00:27:01.455Z,999.61
2017-03-20T00:27:42.328Z,999.69
2017-03-20T00:28:23.210Z,999.66
2017-03-20T00:29:04.099Z,999.59
2017-03-20T00:29:44.998Z,999.61
2017-03-20T00:30:25.878Z,999.59
2017-03-20T00:31:06.768Z,999.62
2017-03-20T00:31:47.651Z,999.63
2017-03-20T00:32:28.539Z,999.62
2017-03-20T00:33:09.427Z,999.64
2017-03-20T00:33:50.328Z,999.77
2017-03-20T00:34:31.202Z,999.65
2017-03-20T00:35:12.078Z,999.67
2017-03-20T00:35:52.964Z,999.74
2017-03-20T00:36:33.852Z,999.66
2017-03-20T00:37:14.725Z,999.63
2017-03-20T00:37:55.603Z,999.71
2017-03-20T00:38:36.487Z,999.7
2017-03-20T00:39:17.385Z,999.67
2017-03-20T00:39:58.271Z,999.67
2017-03-20T00:40:39.136Z,999.61
2017-03-20T00:41:20.028Z,999.7
2017-03-20T00:42:00.919Z,999.68
2017-03-20T00:42:41.804Z,999.68
2017-03-20T00:43:22.671Z,999.75
2017-03-20T00:44:03.560Z,999.74
2017-03-20T00:44:44.445Z,999.72
2017-03-20T00:45:25.324Z,999.73
2017-03-20T00:46:06.203Z,999.75
2017-03-20T00:46:47.088Z,999.76
2017-03-20T00:47:27.972Z,999.78
2017-03-20T00:48:08.855Z,999.77
2017-03-20T00:48:49.742Z,999.78
2017-03-20T00:49:30.628Z,999.79
2017-03-20T00:50:11.521Z,999.83
2017-03-20T00:50:52.400Z,999.8
2017-03-20T00:51:33.285Z,999.74
2017-03-20T00:52:14.156Z,999.76
2017-03-20T00:52:55.051Z,999.82
2017-03-20T00:53:35.936Z,999.83
2017-03-20T00:54:16.813Z,999.78
2017-03-20T00:54:57.695Z,999.72
2017-03-20T00:55:38.589Z,999.72
2017-03-20T00:56:19.484Z,999.79
2017-03-20T00:57:00.367Z,999.78
2017-03-20T00:57:41.262Z,999.78
2017-03-20T00:58:22.143Z,999.81
2017-03-20T00:59:03.025Z,999.77
2017-03-20T00:59:43.910Z,999.87
2017-03-20T01:00:24.795Z,999.77
2017-03-20T01:01:05.680Z,999.81
2017-03-20T01:01:46.564Z,999.91
2017-03-20T01:02:27.443Z,999.86
2017-03-20T01:03:08.338Z,999.83
2017-03-20T01:03:49.215Z,999.95
2017-03-20T01:04:30.097Z,999.78
2017-03-20T01:05:10.979Z,999.88
2017-03-20T01:05:51.869Z,999.89
2017-03-20T01:06:32.759Z,999.89
2017-03-20T01:07:13.642Z,999.88
2017-03-20T01:07:54.522Z,999.96
2017-03-20T01:08:35.395Z,999.92
2017-03-20T01:09:16.278Z,999.81
2017-03-20T01:09:57.164Z,999.91
2017-03-20T01:10:38.040Z,999.91
2017-03-20T01:11:18.909Z,999.93
2017-03-20T01:11:59.801Z,999.91
2017-03-20T01:12:40.688Z,999.86
2017-03-20T01:13:21.569Z,999.87
2017-03-20T01:14:02.460Z,999.89
2017-03-20T01:14:43.339Z,999.88
2017-03-20T01:15:24.228Z,999.91
2017-03-20T01:16:05.111Z,999.79
2017-03-20T01:16:45.992Z,999.93
2017-03-20T01:17:26.874Z,999.89
2017-03-20T01:18:07.767Z,999.88
2017-03-20T01:18:48.653Z,999.96
2017-03-20T01:19:29.536Z,999.93
2017-03-20T01:20:10.427Z,999.93
2017-03-20T01:20:51.313Z,999.97
2017-03-20T01:21:32.197Z,999.9
2017-03-20T01:22:13.081Z,999.89
2017-03-20T01:22:53.963Z,999.93
2017-03-20T01:23:34.847Z,1000.01
2017-03-20T01:24:15.726Z,999.99
2017-03-20T01:24:56.609Z,999.97
2017-03-20T01:25:37.489Z,999.94
2017-03-20T01:26:18.376Z,999.93
2017-03-20T01:26:59.261Z,1000.01
2017-03-20T01:27:40.145Z,999.94
2017-03-20T01:28:21.025Z,999.85
2017-03-20T01:29:01.912Z,999.93
2017-03-20T01:29:42.789Z,999.88
2017-03-20T01:30:23.662Z,999.86
2017-03-20T01:31:04.546Z,999.91
2017-03-20T01:31:45.440Z,999.91
2017-03-20T01:32:26.320Z,999.9
2017-03-20T01:33:07.204Z,1000.01
2017-03-20T01:33:48.096Z,999.95
2017-03-20T01:34:28.976Z,1000
2017-03-20T01:35:09.861Z,999.94
2017-03-20T01:35:50.738Z,999.93
2017-03-20T01:36:31.623Z,999.95
2017-03-20T01:37:12.512Z,999.99
2017-03-20T01:37:53.396Z,999.98
2017-03-20T01:38:34.275Z,1000.03
2017-03-20T01:39:15.158Z,1000.04
2017-03-20T01:39:56.045Z,999.98
2017-03-20T01:40:36.927Z,1000.09
2017-03-20T01:41:17.809Z,1000.09
2017-03-20T01:41:58.691Z,999.97
2017-03-20T01:42:39.575Z,1000.03
2017-03-20T01:43:20.453Z,1000.07
2017-03-20T01:44:01.339Z,999.98
2017-03-20T01:44:42.220Z,1000.04
2017-03-20T01:45:23.106Z,1000.05
2017-03-20T01:46:03.997Z,1000
2017-03-20T01:46:44.877Z,1000.16
2017-03-20T01:47:25.765Z,1000.03
2017-03-20T01:48:06.648Z,1000.05
2017-03-20T01:48:47.522Z,1000.04
2017-03-20T01:49:28.395Z,1000.05
2017-03-20T01:50:09.284Z,1000.02
2017-03-20T01:50:50.177Z,1000.11
2017-03-20T01:51:31.062Z,1000.05
2017-03-20T01:52:11.941Z,1000.08
2017-03-20T01:52:52.830Z,1000.1
2017-03-20T01:53:33.712Z,1000.16
2017-03-20T01:54:14.602Z,1000.09
2017-03-20T01:54:55.482Z,1000.05
2017-03-20T01:55:36.379Z,1000.07
2017-03-20T01:57:35.107Z,1000.08
2017-03-20T01:58:15.993Z,1000.06
2017-03-20T01:58:56.890Z,1000.12
2017-03-20T01:59:37.768Z,1000.08
2017-03-20T02:00:18.647Z,1000.18
2017-03-20T02:00:59.531Z,1000.12
2017-03-20T02:01:40.408Z,1000.15
2017-03-20T02:02:21.285Z,1000.11
2017-03-20T02:03:02.159Z,1000.06
2017-03-20T02:03:43.035Z,1000.12
2017-03-20T02:04:23.922Z,1000.17
2017-03-20T02:05:04.801Z,1000.12
2017-03-20T02:05:45.681Z,1000.16
2017-03-20T02:06:26.560Z,1000.14
2017-03-20T02:07:07.439Z,1000.19
2017-03-20T02:07:48.318Z,1000.17
2017-03-20T02:08:29.206Z,1000.14
2017-03-20T02:09:10.079Z,1000.14
2017-03-20T02:09:50.959Z,1000.01
2017-03-20T02:10:31.850Z,1000.17
2017-03-20T02:11:12.743Z,1000.2
2017-03-20T02:11:53.610Z,1000.2
2017-03-20T02:12:34.495Z,1000.2
2017-03-20T02:13:15.367Z,1000.16
2017-03-20T02:13:56.257Z,1000.16
2017-03-20T02:14:37.151Z,1000.23
2017-03-20T02:15:18.028Z,1000.21
2017-03-20T02:15:58.920Z,1000.23
2017-03-20T02:16:39.812Z,1000.22
2017-03-20T02:17:20.695Z,1000.24
2017-03-20T02:18:01.567Z,1000.19
2017-03-20T02:18:42.452Z,1000.21
2017-03-20T02:19:23.349Z,1000.26
2017-03-20T02:20:04.218Z,1000.18
2017-03-20T02:20:45.099Z,1000.11
2017-03-20T02:21:25.985Z,1000.12
2017-03-20T02:22:06.880Z,1000.15
2017-03-20T02:22:47.759Z,1000.11
2017-03-20T02:23:28.636Z,1000.13
2017-03-20T02:24:09.527Z,1000.16
2017-03-20T02:24:50.418Z,1000.19
2017-03-20T02:25:31.296Z,1000.22
2017-03-20T02:26:12.173Z,1000.21
2017-03-20T02:26:53.059Z,1000.23
2017-03-20T02:27:33.948Z,1000.27
2017-03-20T02:28:14.820Z,1000.26
2017-03-20T02:28:55.703Z,1000.22
2017-03-20T02:29:36.583Z,1000.26
2017-03-20T02:30:17.476Z,1000.26
2017-03-20T02:30:58.359Z,1000.18
2017-03-20T02:31:39.234Z,1000.17
2017-03-20T02:32:20.117Z,1000.15
2017-03-20T02:33:01.007Z,1000.23
2017-03-20T02:33:41.899Z,1000.26
2017-03-20T02:34:22.788Z,1000.22
2017-03-20T02:35:03.675Z,1000.28
2017-03-20T02:35:44.555Z,1000.27
2017-03-20T02:36:25.462Z,1000.29
2017-03-20T02:37:06.322Z,1000.33
2017-03-20T02:37:47.210Z,1000.32
2017-03-20T02:38:28.092Z,1000.3
2017-03-20T02:39:08.973Z,1000.34
2017-03-20T02:39:49.859Z,1000.36
2017-03-20T02:40:30.744Z,1000.35
2017-03-20T02:41:11.627Z,1000.38
2017-03-20T02:41:52.506Z,1000.37
2017-03-20T02:42:33.388Z,1000.38
2017-03-20T02:43:14.278Z,1000.41
2017-03-20T02:43:55.169Z,1000.39
2017-03-20T02:44:36.056Z,1000.4
2017-03-20T02:45:16.932Z,1000.41
2017-03-20T02:45:57.824Z,1000.44
2017-03-20T02:46:38.708Z,1000.41
2017-03-20T02:47:19.595Z,1000.43
2017-03-20T02:48:00.526Z,1000.38
2017-03-20T02:48:41.390Z,1000.39
2017-03-20T02:49:22.275Z,1000.36
2017-03-20T02:50:03.164Z,1000.41
2017-03-20T02:50:44.053Z,1000.45
2017-03-20T02:51:24.925Z,1000.44
2017-03-20T02:52:05.817Z,1000.51
2017-03-20T02:52:46.712Z,1000.54
2017-03-20T02:53:27.587Z,1000.54
2017-03-20T02:54:08.455Z,1000.53
2017-03-20T02:54:49.333Z,1000.59
2017-03-20T02:55:30.232Z,1000.56
2017-03-20T02:56:11.123Z,1000.54
2017-03-20T02:56:51.994Z,1000.55
2017-03-20T02:57:32.866Z,1000.61
2017-03-20T02:58:13.769Z,1000.59
2017-03-20T02:58:54.640Z,1000.57
2017-03-20T02:59:35.516Z,1000.6
2017-03-20T03:00:16.390Z,1000.61
2017-03-20T03:00:57.267Z,1000.67
2017-03-20T03:01:38.157Z,1000.72
2017-03-20T03:02:19.046Z,1000.76
2017-03-20T03:02:59.911Z,1000.67
2017-03-20T03:03:40.793Z,1000.7
2017-03-20T03:04:21.682Z,1000.72
2017-03-20T03:05:02.567Z,1000.67
2017-03-20T03:05:43.441Z,1000.78
2017-03-20T03:06:24.331Z,1000.71
2017-03-20T03:07:05.223Z,1000.72
2017-03-20T03:07:46.113Z,1000.72
2017-03-20T03:08:26.989Z,1000.72
2017-03-20T03:09:07.869Z,1000.73
2017-03-20T03:09:48.749Z,1000.7
2017-03-20T03:10:29.625Z,1000.62
2017-03-20T03:11:10.512Z,1000.76
2017-03-20T03:11:51.395Z,1000.73
2017-03-20T03:12:32.286Z,1000.7
2017-03-20T03:13:13.165Z,1000.71
2017-03-20T03:13:54.047Z,1000.73
2017-03-20T03:14:34.929Z,1000.72
2017-03-20T03:15:15.825Z,1000.76
2017-03-20T03:15:56.717Z,1000.78
2017-03-20T03:16:37.593Z,1000.86
2017-03-20T03:17:18.479Z,1000.86
2017-03-20T03:17:59.371Z,1000.85
2017-03-20T03:18:40.252Z,1000.88
2017-03-20T03:19:21.141Z,1000.86
2017-03-20T03:20:02.032Z,1000.93
2017-03-20T03:20:42.918Z,1000.91
2017-03-20T03:21:23.802Z,1000.94
2017-03-20T03:22:04.683Z,1000.97
2017-03-20T03:22:45.579Z,1000.98
2017-03-20T03:23:26.466Z,1000.97
2017-03-20T03:24:07.350Z,1000.98
2017-03-20T03:24:48.242Z,1000.92
2017-03-20T03:25:29.127Z,1000.98
2017-03-20T03:26:10.011Z,1000.99
2017-03-20T03:26:50.901Z,1001.02
2017-03-20T03:27:31.793Z,1000.98
2017-03-20T03:28:12.673Z,1001.04
2017-03-20T03:28:53.562Z,1001.05
2017-03-20T03:29:34.442Z,1001.01
2017-03-20T03:30:15.326Z,1001.08
2017-03-20T03:30:56.212Z,1001.05
2017-03-20T03:31:37.100Z,1001.01
2017-03-20T03:32:17.996Z,1001.1
2017-03-20T03:32:58.883Z,1001.05
2017-03-20T03:33:39.768Z,1001.04
2017-03-20T03:34:20.656Z,1001.04
2017-03-20T03:35:01.546Z,1001.1
2017-03-20T03:35:42.430Z,1001.12
2017-03-20T03:36:23.321Z,1001.15
2017-03-20T03:37:04.194Z,1001.12
2017-03-20T03:37:45.066Z,1001.19
2017-03-20T03:38:25.947Z,1001.18
2017-03-20T03:39:06.837Z,1001.13
2017-03-20T03:39:47.738Z,1001.21
2017-03-20T03:40:28.619Z,1001.19
2017-03-20T03:41:09.494Z,1001.17
2017-03-20T03:41:50.363Z,1001.22
2017-03-20T03:42:31.264Z,1001.23
2017-03-20T03:43:12.145Z,1001.3
2017-03-20T03:43:53.016Z,1001.27
2017-03-20T03:44:33.903Z,1001.25
2017-03-20T03:45:14.795Z,1001.29
2017-03-20T03:45:55.678Z,1001.25
2017-03-20T03:46:36.588Z,1001.31
2017-03-20T03:47:17.472Z,1001.3
2017-03-20T03:47:58.362Z,1001.31
2017-03-20T03:48:39.225Z,1001.39
2017-03-20T03:49:20.102Z,1001.44
2017-03-20T03:50:00.985Z,1001.37
2017-03-20T03:50:41.874Z,1001.34
2017-03-20T03:51:22.761Z,1001.37
2017-03-20T03:52:03.648Z,1001.41
2017-03-20T03:52:44.540Z,1001.33
2017-03-20T03:53:25.424Z,1001.34
2017-03-20T03:54:06.305Z,1001.31
2017-03-20T03:54:47.191Z,1001.37
2017-03-20T03:55:28.079Z,1001.31
2017-03-20T03:56:08.967Z,1001.31
2017-03-20T03:56:49.881Z,1001.32
2017-03-20T03:57:30.766Z,1001.34
2017-03-20T03:58:11.667Z,1001.36
2017-03-20T03:58:52.559Z,1001.37
2017-03-20T03:59:33.450Z,1001.43
2017-03-20T04:00:14.325Z,1001.38
2017-03-20T04:00:55.205Z,1001.39
2017-03-20T04:01:36.099Z,1001.43
2017-03-20T04:02:16.981Z,1001.46
2017-03-20T04:02:57.860Z,1001.39
2017-03-20T04:03:38.739Z,1001.46
2017-03-20T04:04:19.628Z,1001.46
2017-03-20T04:05:00.517Z,1001.45
2017-03-20T04:05:41.390Z,1001.47
2017-03-20T04:06:22.271Z,1001.48
2017-03-20T04:07:03.164Z,1001.49
2017-03-20T04:07:44.047Z,1001.51
2017-03-20T04:08:24.921Z,1001.47
2017-03-20T04:09:05.802Z,1001.56
2017-03-20T04:09:46.706Z,1001.57
2017-03-20T04:10:27.584Z,1001.5
2017-03-20T04:11:08.473Z,1001.48
2017-03-20T04:11:49.369Z,1001.49
2017-03-20T04:12:30.259Z,1001.47
2017-03-20T04:13:11.129Z,1001.46
2017-03-20T04:13:52.014Z,1001.52
2017-03-20T04:14:32.907Z,1001.48
2017-03-20T04:15:13.790Z,1001.51
2017-03-20T04:15:54.661Z,1001.51
2017-03-20T04:16:35.540Z,1001.49
2017-03-20T04:17:16.438Z,1001.53
2017-03-20T04:17:57.333Z,1001.51
2017-03-20T04:18:38.202Z,1001.5
2017-03-20T04:19:19.084Z,1001.59
2017-03-20T04:19:59.973Z,1001.57
2017-03-20T04:20:40.859Z,1001.59
2017-03-20T04:21:21.757Z,1001.58
2017-03-20T04:22:02.648Z,1001.6
2017-03-20T04:22:43.549Z,1001.6
2017-03-20T04:23:24.430Z,1001.65
2017-03-20T04:24:05.338Z,1001.59
2017-03-20T04:24:46.221Z,1001.6
2017-03-20T04:25:27.108Z,1001.6
2017-03-20T04:26:08.001Z,1001.62
2017-03-20T04:26:48.885Z,1001.63
2017-03-20T04:27:29.763Z,1001.55
2017-03-20T04:28:10.640Z,1001.65
2017-03-20T04:28:51.533Z,1001.67
2017-03-20T04:29:32.417Z,1001.66
2017-03-20T04:30:13.291Z,1001.65
2017-03-20T04:30:54.172Z,1001.63
2017-03-20T04:31:35.053Z,1001.62
2017-03-20T04:32:15.943Z,1001.67
2017-03-20T04:32:56.830Z,1001.68
2017-03-20T04:33:37.713Z,1001.67
2017-03-20T04:34:18.607Z,1001.74
2017-03-20T04:34:59.524Z,1001.69
2017-03-20T04:35:40.378Z,1001.73
2017-03-20T04:36:21.260Z,1001.76
2017-03-20T04:37:02.145Z,1001.78
2017-03-20T04:37:43.030Z,1001.76
2017-03-20T04:38:23.915Z,1001.78
2017-03-20T04:39:04.801Z,1001.71
2017-03-20T04:39:45.683Z,1001.77
2017-03-20T04:40:26.572Z,1001.69
2017-03-20T04:41:07.455Z,1001.73
2017-03-20T04:41:48.342Z,1001.74
2017-03-20T04:42:29.227Z,1001.7
2017-03-20T04:43:10.112Z,1001.74
2017-03-20T04:43:50.997Z,1001.67
2017-03-20T04:44:31.906Z,1001.76
2017-03-20T04:45:12.809Z,1001.73
2017-03-20T04:45:53.678Z,1001.67
2017-03-20T04:46:34.568Z,1001.67
2017-03-20T04:47:15.457Z,1001.7
2017-03-20T04:47:56.341Z,1001.65
2017-03-20T04:48:37.219Z,1001.77
2017-03-20T04:49:18.107Z,1001.71
2017-03-20T04:49:58.984Z,1001.76
2017-03-20T04:50:39.865Z,1001.72
2017-03-20T04:51:20.742Z,1001.74
2017-03-20T04:52:01.639Z,1001.76
2017-03-20T04:52:42.524Z,1001.76
2017-03-20T04:53:23.400Z,1001.8
2017-03-20T04:54:04.280Z,1001.83
2017-03-20T04:54:45.161Z,1001.82
2017-03-20T04:55:26.043Z,1001.81
2017-03-20T04:56:06.933Z,1001.8
2017-03-20T04:56:47.821Z,1001.85
2017-03-20T04:57:28.706Z,1001.8
2017-03-20T04:58:09.591Z,1001.8
2017-03-20T04:58:50.467Z,1001.78
2017-03-20T04:59:31.356Z,1001.8
2017-03-20T05:00:12.238Z,1001.75
2017-03-20T05:00:53.113Z,1001.81
2017-03-20T05:01:33.996Z,1001.79
2017-03-20T05:02:14.886Z,1001.83
2017-03-20T05:02:55.771Z,1001.87
2017-03-20T05:03:36.645Z,1001.82
2017-03-20T05:04:17.533Z,1001.91
2017-03-20T05:04:58.420Z,1001.85
2017-03-20T05:05:39.307Z,1001.84
2017-03-20T05:06:20.190Z,1001.88
2017-03-20T05:07:01.082Z,1001.88
2017-03-20T05:07:41.962Z,1001.93
2017-03-20T05:08:22.851Z,1001.82
2017-03-20T05:09:03.759Z,1001.93
2017-03-20T05:09:44.655Z,1001.9
2017-03-20T05:10:25.536Z,1001.91
2017-03-20T05:11:06.420Z,1001.99
2017-03-20T05:11:47.306Z,1001.93
2017-03-20T05:12:28.187Z,1001.98
2017-03-20T05:13:09.081Z,1001.94
2017-03-20T05:13:49.973Z,1001.95
2017-03-20T05:14:30.861Z,1001.96
2017-03-20T05:15:11.730Z,1001.97
2017-03-20T05:15:52.620Z,1002.01
2017-03-20T05:16:33.514Z,1001.99
2017-03-20T05:17:14.389Z,1001.97
2017-03-20T05:17:55.269Z,1001.91
2017-03-20T05:18:36.155Z,1001.98
2017-03-20T05:19:17.046Z,1002.02
2017-03-20T05:19:57.926Z,1002.01
2017-03-20T05:20:38.816Z,1001.99
2017-03-20T05:21:19.703Z,1002.03
2017-03-20T05:22:00.591Z,1002.01
2017-03-20T05:22:41.473Z,1002.07
2017-03-20T05:23:22.355Z,1002.04
2017-03-20T05:24:03.266Z,1002.08
2017-03-20T05:24:44.190Z,1002.07
2017-03-20T05:25:25.077Z,1002.13
2017-03-20T05:26:05.975Z,1002.07
2017-03-20T05:26:46.875Z,1002.11
2017-03-20T05:27:27.760Z,1002.07
2017-03-20T05:28:08.640Z,1002.06
2017-03-20T05:28:49.507Z,1002.08
2017-03-20T05:29:30.397Z,1002.06
2017-03-20T05:30:11.286Z,1002.08
2017-03-20T05:30:52.172Z,1002.12
2017-03-20T05:31:33.054Z,1002.11
2017-03-20T05:32:13.937Z,1002.17
2017-03-20T05:32:54.822Z,1002.2
2017-03-20T05:33:35.709Z,1002.19
2017-03-20T05:34:16.587Z,1002.15
2017-03-20T05:34:57.477Z,1002.16
2017-03-20T05:35:38.366Z,1002.15
2017-03-20T05:36:19.251Z,1002.15
2017-03-20T05:37:00.140Z,1002.19
2017-03-20T05:37:41.025Z,1002.2
2017-03-20T05:38:21.920Z,1002.24
2017-03-20T05:39:02.790Z,1002.16
2017-03-20T05:39:43.676Z,1002.2
2017-03-20T05:40:24.560Z,1002.24
2017-03-20T05:41:05.449Z,1002.21
2017-03-20T05:41:46.333Z,1002.22
2017-03-20T05:42:27.224Z,1002.32
2017-03-20T05:43:08.114Z,1002.25
2017-03-20T05:43:48.991Z,1002.27
2017-03-20T05:44:29.877Z,1002.29
2017-03-20T05:45:10.761Z,1002.27
2017-03-20T05:45:51.640Z,1002.35
2017-03-20T05:46:32.528Z,1002.3
2017-03-20T05:47:13.409Z,1002.33
2017-03-20T05:47:54.300Z,1002.35
2017-03-20T05:48:35.175Z,1002.41
2017-03-20T05:49:16.048Z,1002.37
2017-03-20T05:49:56.920Z,1002.33
2017-03-20T05:50:37.815Z,1002.38
2017-03-20T05:51:18.708Z,1002.36
2017-03-20T05:51:59.590Z,1002.38
2017-03-20T05:52:40.474Z,1002.36
2017-03-20T05:53:21.366Z,1002.42
2017-03-20T05:54:02.247Z,1002.45
2017-03-20T05:54:43.164Z,1002.35
2017-03-20T05:55:24.058Z,1002.34
2017-03-20T05:56:04.945Z,1002.37
2017-03-20T05:56:45.833Z,1002.37
2017-03-20T05:57:26.719Z,1002.39
2017-03-20T05:58:07.612Z,1002.41
2017-03-20T05:58:48.478Z,1002.39
2017-03-20T05:59:29.383Z,1002.39
2017-03-20T06:00:10.268Z,1002.38
2017-03-20T06:00:51.154Z,1002.41
2017-03-20T06:01:32.047Z,1002.36
2017-03-20T06:02:12.929Z,1002.36
2017-03-20T06:04:11.791Z,1002.37
2017-03-20T06:04:52.675Z,1002.41
2017-03-20T06:05:33.555Z,1002.37
2017-03-20T06:06:14.441Z,1002.39
2017-03-20T06:06:55.322Z,1002.41
2017-03-20T06:07:36.207Z,1002.4
2017-03-20T06:08:17.095Z,1002.46
2017-03-20T06:08:57.979Z,1002.48
2017-03-20T06:09:38.868Z,1002.49
2017-03-20T06:10:19.754Z,1002.5
2017-03-20T06:11:00.628Z,1002.52
2017-03-20T06:11:41.503Z,1002.49
2017-03-20T06:12:22.387Z,1002.51
2017-03-20T06:13:03.276Z,1002.49
2017-03-20T06:13:44.167Z,1002.57
2017-03-20T06:14:25.065Z,1002.55
2017-03-20T06:15:05.950Z,1002.57
2017-03-20T06:15:46.836Z,1002.52
2017-03-20T06:16:27.722Z,1002.57
2017-03-20T06:17:08.610Z,1002.54
2017-03-20T06:17:49.502Z,1002.55
2017-03-20T06:18:30.382Z,1002.53
2017-03-20T06:19:11.266Z,1002.53
2017-03-20T06:19:52.148Z,1002.55
2017-03-20T06:20:33.035Z,1002.6
2017-03-20T06:21:13.915Z,1002.58
2017-03-20T06:21:54.800Z,1002.6
2017-03-20T06:22:35.690Z,1002.62
2017-03-20T06:23:16.613Z,1002.61
2017-03-20T06:23:57.495Z,1002.66
2017-03-20T06:24:38.385Z,1002.64
2017-03-20T06:25:19.269Z,1002.64
2017-03-20T06:26:00.155Z,1002.67
2017-03-20T06:26:41.041Z,1002.66
2017-03-20T06:27:21.955Z,1002.71
2017-03-20T06:28:02.844Z,1002.67
2017-03-20T06:28:43.747Z,1002.68
2017-03-20T06:29:24.627Z,1002.64
2017-03-20T06:30:05.556Z,1002.65
2017-03-20T06:30:46.452Z,1002.7
2017-03-20T06:31:27.331Z,1002.67
2017-03-20T06:32:08.219Z,1002.69
2017-03-20T06:32:49.098Z,1002.69
2017-03-20T06:33:29.971Z,1002.72
2017-03-20T06:34:10.857Z,1002.69
2017-03-20T06:34:51.743Z,1002.69
2017-03-20T06:35:32.624Z,1002.66
2017-03-20T06:36:13.506Z,1002.62
2017-03-20T06:36:54.388Z,1002.66
2017-03-20T06:37:35.271Z,1002.7
2017-03-20T06:38:16.157Z,1002.69
2017-03-20T06:38:57.034Z,1002.67
2017-03-20T06:39:37.927Z,1002.69
2017-03-20T06:40:18.819Z,1002.68
2017-03-20T06:40:59.705Z,1002.65
2017-03-20T06:41:40.589Z,1002.67
2017-03-20T06:42:21.485Z,1002.68
2017-03-20T06:43:02.374Z,1002.67
2017-03-20T06:43:43.254Z,1002.7
2017-03-20T06:45:22.594Z,1002.71
2017-03-20T06:46:03.483Z,1002.73
2017-03-20T06:46:44.368Z,1002.74
2017-03-20T06:47:25.250Z,1002.72
2017-03-20T06:48:06.138Z,1002.72
2017-03-20T06:48:47.026Z,1002.67
2017-03-20T06:49:27.912Z,1002.69
2017-03-20T06:50:08.781Z,1002.67
2017-03-20T06:50:49.668Z,1002.72
2017-03-20T06:51:30.571Z,1002.67
2017-03-20T06:52:11.453Z,1002.66
2017-03-20T06:52:52.343Z,1002.68
2017-03-20T06:53:33.229Z,1002.7
2017-03-20T06:54:14.115Z,1002.7
2017-03-20T06:54:55.002Z,1002.7
2017-03-20T06:55:35.894Z,1002.69
2017-03-20T06:56:16.777Z,1002.72
2017-03-20T06:56:57.660Z,1002.73
2017-03-20T06:57:38.557Z,1002.7
2017-03-20T06:58:19.410Z,1002.74
2017-03-20T06:59:00.298Z,1002.66
2017-03-20T06:59:41.184Z,1002.76
2017-03-20T07:00:22.073Z,1002.73
2017-03-20T07:01:02.960Z,1002.73
2017-03-20T07:01:43.876Z,1002.77
2017-03-20T07:02:24.761Z,1002.83
2017-03-20T07:03:05.652Z,1002.8
2017-03-20T07:03:46.538Z,1002.81
2017-03-20T07:04:27.420Z,1002.82
2017-03-20T07:05:08.299Z,1002.81
2017-03-20T07:05:49.186Z,1002.81
2017-03-20T07:06:30.072Z,1002.8
2017-03-20T07:07:10.956Z,1002.85
2017-03-20T07:07:51.840Z,1002.77
2017-03-20T07:08:32.718Z,1002.82
2017-03-20T07:09:13.606Z,1002.78
2017-03-20T07:09:54.489Z,1002.82
2017-03-20T07:10:35.378Z,1002.85
2017-03-20T07:11:16.283Z,1002.84
2017-03-20T07:11:57.159Z,1002.81
2017-03-20T07:12:38.047Z,1002.78
2017-03-20T07:13:18.935Z,1002.73
2017-03-20T07:13:59.816Z,1002.76
2017-03-20T07:14:40.693Z,1002.77
2017-03-20T07:15:21.572Z,1002.78
2017-03-20T07:16:02.456Z,1002.78
2017-03-20T07:16:43.349Z,1002.76
2017-03-20T07:17:24.223Z,1002.73
2017-03-20T07:18:05.112Z,1002.78
2017-03-20T07:18:45.989Z,1002.79
2017-03-20T07:19:26.880Z,1002.8
2017-03-20T07:20:07.768Z,1002.81
2017-03-20T07:20:48.652Z,1002.78
2017-03-20T07:21:29.532Z,1002.76
2017-03-20T07:22:10.425Z,1002.79
2017-03-20T07:22:51.313Z,1002.84
2017-03-20T07:23:32.198Z,1002.8
2017-03-20T07:24:13.101Z,1002.79
2017-03-20T07:24:53.981Z,1002.8
2017-03-20T07:25:34.874Z,1002.83
2017-03-20T07:26:15.766Z,1002.8
2017-03-20T07:26:56.653Z,1002.82
2017-03-20T07:27:37.521Z,1002.83
2017-03-20T07:28:18.410Z,1002.84
2017-03-20T07:28:59.298Z,1002.83
2017-03-20T07:29:40.178Z,1002.84
2017-03-20T07:30:21.063Z,1002.79
2017-03-20T07:31:01.943Z,1002.85
2017-03-20T07:31:42.833Z,1002.84
2017-03-20T07:32:23.723Z,1002.8
2017-03-20T07:33:04.624Z,1002.87
2017-03-20T07:33:45.509Z,1002.86
2017-03-20T07:34:26.404Z,1002.86
2017-03-20T07:35:07.280Z,1002.82
2017-03-20T07:35:48.171Z,1002.81
2017-03-20T07:36:29.058Z,1002.82
2017-03-20T07:37:09.938Z,1002.83
2017-03-20T07:37:50.829Z,1002.85
2017-03-20T07:38:31.716Z,1002.78
2017-03-20T07:39:12.590Z,1002.82
2017-03-20T07:39:53.484Z,1002.77
2017-03-20T07:40:34.362Z,1002.84
2017-03-20T07:41:15.249Z,1002.84
2017-03-20T07:41:56.279Z,1002.82
2017-03-20T07:42:37.131Z,1002.83
2017-03-20T07:43:18.010Z,1002.8
2017-03-20T07:43:58.896Z,1002.83
2017-03-20T07:44:39.782Z,1002.79
2017-03-20T07:45:20.671Z,1002.81
2017-03-20T07:46:01.553Z,1002.82
2017-03-20T07:46:42.434Z,1002.78
2017-03-20T07:47:23.321Z,1002.81
2017-03-20T07:48:04.208Z,1002.75
2017-03-20T07:48:45.095Z,1002.74
2017-03-20T07:49:25.979Z,1002.81
2017-03-20T07:50:06.870Z,1002.83
2017-03-20T07:50:47.753Z,1002.81
2017-03-20T07:51:28.666Z,1002.81
2017-03-20T07:52:09.556Z,1002.81
2017-03-20T07:52:50.439Z,1002.84
2017-03-20T07:53:31.321Z,1002.81
2017-03-20T07:54:12.206Z,1002.81
2017-03-20T07:54:53.121Z,1002.77
2017-03-20T07:55:33.991Z,1002.8
2017-03-20T07:56:14.881Z,1002.79
2017-03-20T07:56:55.769Z,1002.79
2017-03-20T07:57:36.633Z,1002.8
2017-03-20T07:58:17.511Z,1002.84
2017-03-20T07:58:58.397Z,1002.83
2017-03-20T07:59:39.270Z,1002.82
2017-03-20T08:00:20.159Z,1002.83
2017-03-20T08:01:01.057Z,1002.85
2017-03-20T08:01:41.941Z,1002.78
2017-03-20T08:02:22.830Z,1002.81
2017-03-20T08:03:03.693Z,1002.86
2017-03-20T08:03:44.577Z,1002.77
2017-03-20T08:04:25.459Z,1002.8
2017-03-20T08:05:06.343Z,1002.82
2017-03-20T08:05:47.229Z,1002.81
2017-03-20T08:06:28.106Z,1002.76
2017-03-20T08:07:08.991Z,1002.77
2017-03-20T08:07:49.877Z,1002.72
2017-03-20T08:08:30.761Z,1002.8
2017-03-20T08:09:11.672Z,1002.76
2017-03-20T08:09:52.518Z,1002.75
2017-03-20T08:10:34.030Z,1002.75
2017-03-20T08:11:14.351Z,1002.76
2017-03-20T08:11:55.256Z,1002.77
2017-03-20T08:12:36.146Z,1002.78
2017-03-20T08:13:17.044Z,1002.78
2017-03-20T08:13:57.939Z,1002.77
2017-03-20T08:14:38.828Z,1002.77
2017-03-20T08:15:19.712Z,1002.74
2017-03-20T08:16:00.602Z,1002.79
2017-03-20T08:16:41.489Z,1002.78
2017-03-20T08:17:22.370Z,1002.76
2017-03-20T08:18:03.263Z,1002.78
2017-03-20T08:18:44.149Z,1002.84
2017-03-20T08:19:25.036Z,1002.81
2017-03-20T08:20:05.931Z,1002.86
2017-03-20T08:20:47.078Z,1002.83
2017-03-20T08:21:27.972Z,1002.85
2017-03-20T08:22:08.865Z,1002.89
2017-03-20T08:22:49.744Z,1002.86